sensor_id;sensor_type;location;lat;lon;timestamp;P1;durP1;ratioP1;P2;durP2;ratioP2
70547;SDS011;58099;43.406;3.698;2022-12-10T00:01:10;8.50;;;4.72;;
70547;SDS011;58099;43.406;3.698;2022-12-10T00:03:38;9.57;;;4.53;;
70547;SDS011;58099;43.406;3.698;2022-12-10T00:06:05;8.50;;;5.18;;
70547;SDS011;58099;43.406;3.698;2022-12-10T00:08:33;8.10;;;4.85;;
70547;SDS011;58099;43.406;3.698;2022-12-10T00:11:04;9.35;;;4.80;;
70547;SDS011;58099;43.406;3.698;2022-12-10T00:13:34;9.73;;;5.25;;
70547;SDS011;58099;43.406;3.698;2022-12-10T00:16:01;7.93;;;4.80;;
70547;SDS011;58099;43.406;3.698;2022-12-10T00:18:28;9.40;;;5.00;;
70547;SDS011;58099;43.406;3.698;2022-12-10T00:20:54;9.20;;;5.10;;
70547;SDS011;58099;43.406;3.698;2022-12-10T00:23:20;9.00;;;5.20;;
70547;SDS011;58099;43.406;3.698;2022-12-10T00:25:46;9.25;;;5.85;;
70547;SDS011;58099;43.406;3.698;2022-12-10T00:28:12;8.63;;;5.00;;
70547;SDS011;58099;43.406;3.698;2022-12-10T00:30:38;9.32;;;5.85;;
70547;SDS011;58099;43.406;3.698;2022-12-10T00:33:03;8.67;;;5.27;;
70547;SDS011;58099;43.406;3.698;2022-12-10T00:35:29;9.57;;;5.03;;
70547;SDS011;58099;43.406;3.698;2022-12-10T00:37:55;9.50;;;4.87;;
70547;SDS011;58099;43.406;3.698;2022-12-10T00:40:21;8.70;;;5.20;;
70547;SDS011;58099;43.406;3.698;2022-12-10T00:42:47;9.07;;;5.10;;
70547;SDS011;58099;43.406;3.698;2022-12-10T00:45:13;9.10;;;5.30;;
70547;SDS011;58099;43.406;3.698;2022-12-10T00:47:38;10.93;;;5.57;;
70547;SDS011;58099;43.406;3.698;2022-12-10T00:50:04;8.45;;;5.40;;
70547;SDS011;58099;43.406;3.698;2022-12-10T00:52:31;9.95;;;5.47;;
70547;SDS011;58099;43.406;3.698;2022-12-10T00:54:56;8.93;;;5.10;;
70547;SDS011;58099;43.406;3.698;2022-12-10T00:57:22;9.13;;;5.18;;
70547;SDS011;58099;43.406;3.698;2022-12-10T00:59:48;9.70;;;5.15;;
70547;SDS011;58099;43.406;3.698;2022-12-10T01:02:15;9.82;;;5.18;;
70547;SDS011;58099;43.406;3.698;2022-12-10T01:04:40;9.50;;;5.00;;
70547;SDS011;58099;43.406;3.698;2022-12-10T01:07:06;8.73;;;5.00;;
70547;SDS011;58099;43.406;3.698;2022-12-10T01:09:32;8.32;;;5.13;;
70547;SDS011;58099;43.406;3.698;2022-12-10T01:12:00;8.05;;;4.80;;
70547;SDS011;58099;43.406;3.698;2022-12-10T01:14:28;9.40;;;4.70;;
70547;SDS011;58099;43.406;3.698;2022-12-10T01:16:59;8.02;;;4.55;;
70547;SDS011;58099;43.406;3.698;2022-12-10T01:19:29;7.03;;;4.38;;
70547;SDS011;58099;43.406;3.698;2022-12-10T01:21:57;8.25;;;4.40;;
70547;SDS011;58099;43.406;3.698;2022-12-10T01:24:23;8.02;;;4.55;;
70547;SDS011;58099;43.406;3.698;2022-12-10T01:26:51;7.53;;;4.20;;
70547;SDS011;58099;43.406;3.698;2022-12-10T01:29:17;6.75;;;3.75;;
70547;SDS011;58099;43.406;3.698;2022-12-10T01:31:43;9.35;;;4.50;;
70547;SDS011;58099;43.406;3.698;2022-12-10T01:34:10;8.43;;;4.22;;
70547;SDS011;58099;43.406;3.698;2022-12-10T01:36:39;8.13;;;4.50;;
70547;SDS011;58099;43.406;3.698;2022-12-10T01:39:09;7.90;;;4.55;;
70547;SDS011;58099;43.406;3.698;2022-12-10T01:41:42;8.52;;;4.32;;
70547;SDS011;58099;43.406;3.698;2022-12-10T01:46:48;8.93;;;4.80;;
70547;SDS011;58099;43.406;3.698;2022-12-10T01:49:19;7.28;;;4.50;;
70547;SDS011;58099;43.406;3.698;2022-12-10T01:51:52;8.13;;;5.00;;
70547;SDS011;58099;43.406;3.698;2022-12-10T01:54:24;9.73;;;5.22;;
70547;SDS011;58099;43.406;3.698;2022-12-10T01:56:54;11.03;;;5.10;;
70547;SDS011;58099;43.406;3.698;2022-12-10T01:59:29;9.38;;;5.10;;
70547;SDS011;58099;43.406;3.698;2022-12-10T02:02:04;10.35;;;5.93;;
70547;SDS011;58099;43.406;3.698;2022-12-10T02:08:05;8.50;;;4.50;;
70547;SDS011;58099;43.406;3.698;2022-12-10T02:10:52;7.20;;;4.30;;
70547;SDS011;58099;43.406;3.698;2022-12-10T02:13:42;8.27;;;5.00;;
70547;SDS011;58099;43.406;3.698;2022-12-10T02:21:40;8.52;;;4.78;;
70547;SDS011;58099;43.406;3.698;2022-12-10T02:24:12;8.57;;;4.73;;
70547;SDS011;58099;43.406;3.698;2022-12-10T07:00:23;4.30;;;1.17;;
70547;SDS011;58099;43.406;3.698;2022-12-10T07:02:49;4.82;;;1.30;;
70547;SDS011;58099;43.406;3.698;2022-12-10T07:05:15;4.60;;;1.40;;
70547;SDS011;58099;43.406;3.698;2022-12-10T07:07:41;4.93;;;1.40;;
70547;SDS011;58099;43.406;3.698;2022-12-10T07:10:07;5.10;;;1.50;;
70547;SDS011;58099;43.406;3.698;2022-12-10T07:12:33;6.13;;;1.80;;
70547;SDS011;58099;43.406;3.698;2022-12-10T07:14:59;4.78;;;1.30;;
70547;SDS011;58099;43.406;3.698;2022-12-10T07:17:25;4.90;;;1.20;;
70547;SDS011;58099;43.406;3.698;2022-12-10T07:19:50;5.32;;;1.30;;
70547;SDS011;58099;43.406;3.698;2022-12-10T07:22:16;5.63;;;1.43;;
70547;SDS011;58099;43.406;3.698;2022-12-10T07:24:42;3.92;;;1.08;;
70547;SDS011;58099;43.406;3.698;2022-12-10T07:27:08;4.88;;;1.58;;
70547;SDS011;58099;43.406;3.698;2022-12-10T07:29:34;4.33;;;1.37;;
70547;SDS011;58099;43.406;3.698;2022-12-10T07:32:00;5.05;;;1.30;;
70547;SDS011;58099;43.406;3.698;2022-12-10T07:34:26;4.53;;;1.80;;
70547;SDS011;58099;43.406;3.698;2022-12-10T07:36:52;5.53;;;1.80;;
70547;SDS011;58099;43.406;3.698;2022-12-10T07:39:17;6.00;;;1.75;;
70547;SDS011;58099;43.406;3.698;2022-12-10T07:41:47;6.07;;;1.83;;
70547;SDS011;58099;43.406;3.698;2022-12-10T07:44:15;5.47;;;1.73;;
70547;SDS011;58099;43.406;3.698;2022-12-10T07:46:43;6.13;;;2.33;;
70547;SDS011;58099;43.406;3.698;2022-12-10T07:49:09;5.80;;;2.10;;
70547;SDS011;58099;43.406;3.698;2022-12-10T07:51:35;5.53;;;1.70;;
70547;SDS011;58099;43.406;3.698;2022-12-10T07:54:00;6.57;;;2.03;;
70547;SDS011;58099;43.406;3.698;2022-12-10T07:56:26;6.55;;;1.92;;
70547;SDS011;58099;43.406;3.698;2022-12-10T07:58:52;6.22;;;1.95;;
70547;SDS011;58099;43.406;3.698;2022-12-10T08:01:20;7.68;;;2.17;;
70547;SDS011;58099;43.406;3.698;2022-12-10T08:03:47;6.87;;;2.60;;
70547;SDS011;58099;43.406;3.698;2022-12-10T08:06:14;7.28;;;2.65;;
70547;SDS011;58099;43.406;3.698;2022-12-10T08:08:42;5.68;;;2.20;;
70547;SDS011;58099;43.406;3.698;2022-12-10T08:11:09;7.03;;;2.70;;
70547;SDS011;58099;43.406;3.698;2022-12-10T08:13:36;6.68;;;2.35;;
70547;SDS011;58099;43.406;3.698;2022-12-10T08:16:05;7.13;;;2.50;;
70547;SDS011;58099;43.406;3.698;2022-12-10T08:18:33;6.57;;;2.60;;
70547;SDS011;58099;43.406;3.698;2022-12-10T08:21:06;6.65;;;2.30;;
70547;SDS011;58099;43.406;3.698;2022-12-10T08:23:43;6.72;;;2.30;;
70547;SDS011;58099;43.406;3.698;2022-12-10T08:26:13;6.30;;;2.00;;
70547;SDS011;58099;43.406;3.698;2022-12-10T08:28:41;6.45;;;2.47;;
70547;SDS011;58099;43.406;3.698;2022-12-10T08:31:08;6.20;;;2.22;;
70547;SDS011;58099;43.406;3.698;2022-12-10T08:33:36;6.57;;;2.40;;
70547;SDS011;58099;43.406;3.698;2022-12-10T08:36:03;6.25;;;2.20;;
70547;SDS011;58099;43.406;3.698;2022-12-10T08:38:29;6.40;;;2.33;;
70547;SDS011;58099;43.406;3.698;2022-12-10T08:40:55;6.00;;;2.10;;
70547;SDS011;58099;43.406;3.698;2022-12-10T08:43:21;7.03;;;2.70;;
70547;SDS011;58099;43.406;3.698;2022-12-10T08:45:47;6.97;;;2.53;;
70547;SDS011;58099;43.406;3.698;2022-12-10T08:48:12;6.57;;;2.30;;
70547;SDS011;58099;43.406;3.698;2022-12-10T08:50:38;6.17;;;2.40;;
70547;SDS011;58099;43.406;3.698;2022-12-10T08:53:04;7.40;;;2.17;;
70547;SDS011;58099;43.406;3.698;2022-12-10T08:55:30;8.20;;;2.93;;
70547;SDS011;58099;43.406;3.698;2022-12-10T08:57:56;6.65;;;2.75;;
70547;SDS011;58099;43.406;3.698;2022-12-10T09:00:23;8.45;;;2.67;;
70547;SDS011;58099;43.406;3.698;2022-12-10T09:02:49;7.18;;;3.17;;
70547;SDS011;58099;43.406;3.698;2022-12-10T09:05:15;7.47;;;3.00;;
70547;SDS011;58099;43.406;3.698;2022-12-10T09:07:40;6.97;;;3.10;;
70547;SDS011;58099;43.406;3.698;2022-12-10T09:10:06;7.87;;;2.77;;
70547;SDS011;58099;43.406;3.698;2022-12-10T09:12:34;7.75;;;3.03;;
70547;SDS011;58099;43.406;3.698;2022-12-10T09:14:59;6.07;;;2.53;;
70547;SDS011;58099;43.406;3.698;2022-12-10T09:17:25;6.72;;;2.50;;
70547;SDS011;58099;43.406;3.698;2022-12-10T09:19:51;7.20;;;2.93;;
70547;SDS011;58099;43.406;3.698;2022-12-10T09:22:16;9.15;;;3.50;;
70547;SDS011;58099;43.406;3.698;2022-12-10T09:24:42;7.40;;;3.50;;
70547;SDS011;58099;43.406;3.698;2022-12-10T09:27:08;9.05;;;3.53;;
70547;SDS011;58099;43.406;3.698;2022-12-10T09:29:33;7.80;;;2.90;;
70547;SDS011;58099;43.406;3.698;2022-12-10T09:31:59;8.60;;;3.40;;
70547;SDS011;58099;43.406;3.698;2022-12-10T09:34:25;8.98;;;3.25;;
70547;SDS011;58099;43.406;3.698;2022-12-10T09:36:50;8.60;;;3.50;;
70547;SDS011;58099;43.406;3.698;2022-12-10T09:39:16;7.88;;;3.80;;
70547;SDS011;58099;43.406;3.698;2022-12-10T09:41:54;8.17;;;3.37;;
70547;SDS011;58099;43.406;3.698;2022-12-10T09:50:48;7.87;;;3.13;;
70547;SDS011;58099;43.406;3.698;2022-12-10T09:53:22;7.50;;;3.28;;
70547;SDS011;58099;43.406;3.698;2022-12-10T09:55:51;7.30;;;2.45;;
70547;SDS011;58099;43.406;3.698;2022-12-10T09:58:17;9.18;;;3.30;;
70547;SDS011;58099;43.406;3.698;2022-12-10T10:00:46;6.43;;;2.80;;
70547;SDS011;58099;43.406;3.698;2022-12-10T10:03:15;8.07;;;2.67;;
70547;SDS011;58099;43.406;3.698;2022-12-10T10:05:46;6.78;;;2.20;;
70547;SDS011;58099;43.406;3.698;2022-12-10T10:11:03;5.95;;;1.98;;
70547;SDS011;58099;43.406;3.698;2022-12-10T10:19:11;8.35;;;2.40;;
70547;SDS011;58099;43.406;3.698;2022-12-10T10:21:41;6.88;;;2.13;;
70547;SDS011;58099;43.406;3.698;2022-12-10T10:24:12;6.47;;;2.20;;
70547;SDS011;58099;43.406;3.698;2022-12-10T10:26:43;7.27;;;2.67;;
70547;SDS011;58099;43.406;3.698;2022-12-10T10:29:11;6.78;;;2.63;;
70547;SDS011;58099;43.406;3.698;2022-12-10T10:31:41;6.53;;;2.35;;
70547;SDS011;58099;43.406;3.698;2022-12-10T10:36:47;8.18;;;2.70;;
70547;SDS011;58099;43.406;3.698;2022-12-10T10:39:25;7.73;;;3.07;;
70547;SDS011;58099;43.406;3.698;2022-12-10T10:41:53;7.40;;;2.55;;
70547;SDS011;58099;43.406;3.698;2022-12-10T10:44:22;7.72;;;3.13;;
70547;SDS011;58099;43.406;3.698;2022-12-10T10:46:50;7.25;;;3.17;;
70547;SDS011;58099;43.406;3.698;2022-12-10T10:51:52;8.53;;;3.03;;
70547;SDS011;58099;43.406;3.698;2022-12-10T10:54:42;7.18;;;3.10;;
70547;SDS011;58099;43.406;3.698;2022-12-10T11:00:04;7.75;;;3.10;;
70547;SDS011;58099;43.406;3.698;2022-12-10T11:02:44;7.63;;;2.38;;
70547;SDS011;58099;43.406;3.698;2022-12-10T11:07:49;7.47;;;2.67;;
70547;SDS011;58099;43.406;3.698;2022-12-10T11:10:23;7.97;;;3.13;;
70547;SDS011;58099;43.406;3.698;2022-12-10T11:13:06;9.93;;;3.40;;
70547;SDS011;58099;43.406;3.698;2022-12-10T11:15:42;6.97;;;3.00;;
70547;SDS011;58099;43.406;3.698;2022-12-10T11:23:42;7.18;;;2.63;;
70547;SDS011;58099;43.406;3.698;2022-12-10T11:34:42;8.65;;;3.00;;
70547;SDS011;58099;43.406;3.698;2022-12-10T11:40:03;7.53;;;2.80;;
70547;SDS011;58099;43.406;3.698;2022-12-10T11:45:37;7.93;;;2.73;;
70547;SDS011;58099;43.406;3.698;2022-12-10T11:50:49;7.78;;;2.70;;
70547;SDS011;58099;43.406;3.698;2022-12-10T11:53:23;6.55;;;2.50;;
70547;SDS011;58099;43.406;3.698;2022-12-10T11:56:21;7.43;;;2.60;;
70547;SDS011;58099;43.406;3.698;2022-12-10T12:02:07;7.55;;;3.00;;
70547;SDS011;58099;43.406;3.698;2022-12-10T12:06:04;7.35;;;2.92;;
70547;SDS011;58099;43.406;3.698;2022-12-10T12:10:57;7.30;;;2.70;;
70547;SDS011;58099;43.406;3.698;2022-12-10T12:13:41;7.60;;;2.70;;
70547;SDS011;58099;43.406;3.698;2022-12-10T12:16:21;7.55;;;2.33;;
70547;SDS011;58099;43.406;3.698;2022-12-10T12:19:11;7.85;;;2.42;;
70547;SDS011;58099;43.406;3.698;2022-12-10T12:21:44;6.45;;;2.10;;
70547;SDS011;58099;43.406;3.698;2022-12-10T12:24:18;6.70;;;2.92;;
70547;SDS011;58099;43.406;3.698;2022-12-10T12:27:00;6.73;;;1.93;;
70547;SDS011;58099;43.406;3.698;2022-12-10T12:32:20;6.90;;;2.58;;
70547;SDS011;58099;43.406;3.698;2022-12-10T12:37:38;8.48;;;2.95;;
70547;SDS011;58099;43.406;3.698;2022-12-10T12:40:28;8.17;;;3.00;;
70547;SDS011;58099;43.406;3.698;2022-12-10T12:43:16;7.50;;;2.78;;
70547;SDS011;58099;43.406;3.698;2022-12-10T12:45:48;6.68;;;2.67;;
70547;SDS011;58099;43.406;3.698;2022-12-10T12:48:23;7.93;;;2.08;;
70547;SDS011;58099;43.406;3.698;2022-12-10T12:51:00;8.95;;;2.72;;
70547;SDS011;58099;43.406;3.698;2022-12-10T12:53:31;6.97;;;2.53;;
70547;SDS011;58099;43.406;3.698;2022-12-10T12:56:04;7.15;;;2.60;;
70547;SDS011;58099;43.406;3.698;2022-12-10T12:59:22;6.75;;;2.78;;
70547;SDS011;58099;43.406;3.698;2022-12-10T13:02:08;8.35;;;2.78;;
70547;SDS011;58099;43.406;3.698;2022-12-10T13:04:59;7.60;;;2.50;;
70547;SDS011;58099;43.406;3.698;2022-12-10T13:20:40;7.07;;;2.33;;
70547;SDS011;58099;43.406;3.698;2022-12-10T13:36:26;6.13;;;2.03;;
70547;SDS011;58099;43.406;3.698;2022-12-10T13:41:39;7.17;;;2.40;;
70547;SDS011;58099;43.406;3.698;2022-12-10T13:44:59;6.82;;;1.90;;
70547;SDS011;58099;43.406;3.698;2022-12-10T13:50:14;6.10;;;2.40;;
70547;SDS011;58099;43.406;3.698;2022-12-10T13:58:16;6.45;;;2.03;;
70547;SDS011;58099;43.406;3.698;2022-12-10T14:06:18;6.68;;;2.47;;
70547;SDS011;58099;43.406;3.698;2022-12-10T14:09:11;6.57;;;2.30;;
70547;SDS011;58099;43.406;3.698;2022-12-10T14:12:25;11.05;;;1.90;;
70547;SDS011;58099;43.406;3.698;2022-12-10T14:14:38;5.85;;;1.83;;
70547;SDS011;58099;43.406;3.698;2022-12-10T14:17:09;6.45;;;1.90;;
70547;SDS011;58099;43.406;3.698;2022-12-10T14:19:42;9.02;;;2.58;;
70547;SDS011;58099;43.406;3.698;2022-12-10T14:22:17;7.73;;;2.40;;
70547;SDS011;58099;43.406;3.698;2022-12-10T14:24:49;6.07;;;2.50;;
70547;SDS011;58099;43.406;3.698;2022-12-10T14:27:17;6.43;;;2.20;;
70547;SDS011;58099;43.406;3.698;2022-12-10T14:29:48;9.85;;;3.42;;
70547;SDS011;58099;43.406;3.698;2022-12-10T14:32:16;7.18;;;2.10;;
70547;SDS011;58099;43.406;3.698;2022-12-10T14:34:54;7.13;;;3.20;;
70547;SDS011;58099;43.406;3.698;2022-12-10T14:37:26;7.70;;;2.78;;
70547;SDS011;58099;43.406;3.698;2022-12-10T14:39:55;7.25;;;2.60;;
70547;SDS011;58099;43.406;3.698;2022-12-10T14:42:21;7.90;;;2.40;;
70547;SDS011;58099;43.406;3.698;2022-12-10T14:44:50;7.95;;;3.03;;
70547;SDS011;58099;43.406;3.698;2022-12-10T14:47:27;7.33;;;2.87;;
70547;SDS011;58099;43.406;3.698;2022-12-10T14:50:00;8.30;;;2.58;;
70547;SDS011;58099;43.406;3.698;2022-12-10T14:52:34;7.40;;;2.40;;
70547;SDS011;58099;43.406;3.698;2022-12-10T14:55:05;8.05;;;3.30;;
70547;SDS011;58099;43.406;3.698;2022-12-10T14:57:40;7.70;;;2.90;;
70547;SDS011;58099;43.406;3.698;2022-12-10T15:00:16;8.50;;;2.80;;
70547;SDS011;58099;43.406;3.698;2022-12-10T15:02:45;10.18;;;3.45;;
70547;SDS011;58099;43.406;3.698;2022-12-10T15:07:47;8.60;;;3.35;;
70547;SDS011;58099;43.406;3.698;2022-12-10T15:10:21;8.95;;;3.47;;
70547;SDS011;58099;43.406;3.698;2022-12-10T15:12:58;8.20;;;2.90;;
70547;SDS011;58099;43.406;3.698;2022-12-10T15:15:26;8.27;;;3.10;;
70547;SDS011;58099;43.406;3.698;2022-12-10T15:20:36;8.57;;;3.30;;
70547;SDS011;58099;43.406;3.698;2022-12-10T15:28:29;10.18;;;3.42;;
70547;SDS011;58099;43.406;3.698;2022-12-10T15:36:31;8.57;;;3.10;;
70547;SDS011;58099;43.406;3.698;2022-12-10T15:39:02;8.65;;;3.70;;
70547;SDS011;58099;43.406;3.698;2022-12-10T15:41:32;9.38;;;3.13;;
70547;SDS011;58099;43.406;3.698;2022-12-10T15:44:34;7.70;;;3.22;;
70547;SDS011;58099;43.406;3.698;2022-12-10T15:47:15;8.03;;;3.00;;
70547;SDS011;58099;43.406;3.698;2022-12-10T15:49:43;8.95;;;2.67;;
70547;SDS011;58099;43.406;3.698;2022-12-10T15:52:13;8.13;;;2.80;;
70547;SDS011;58099;43.406;3.698;2022-12-10T15:54:40;8.93;;;3.20;;
70547;SDS011;58099;43.406;3.698;2022-12-10T15:57:28;8.68;;;3.35;;
70547;SDS011;58099;43.406;3.698;2022-12-10T16:00:17;7.63;;;3.40;;
70547;SDS011;58099;43.406;3.698;2022-12-10T16:02:51;7.72;;;3.08;;
70547;SDS011;58099;43.406;3.698;2022-12-10T16:05:29;10.85;;;3.25;;
70547;SDS011;58099;43.406;3.698;2022-12-10T16:08:06;9.38;;;3.47;;
70547;SDS011;58099;43.406;3.698;2022-12-10T16:10:32;8.52;;;3.13;;
70547;SDS011;58099;43.406;3.698;2022-12-10T16:15:28;9.45;;;2.95;;
70547;SDS011;58099;43.406;3.698;2022-12-10T16:18:00;9.05;;;3.20;;
70547;SDS011;58099;43.406;3.698;2022-12-10T16:20:28;9.68;;;3.25;;
70547;SDS011;58099;43.406;3.698;2022-12-10T16:22:55;9.20;;;3.42;;
70547;SDS011;58099;43.406;3.698;2022-12-10T16:25:23;7.87;;;2.73;;
70547;SDS011;58099;43.406;3.698;2022-12-10T16:27:51;9.45;;;3.55;;
70547;SDS011;58099;43.406;3.698;2022-12-10T16:30:29;9.20;;;3.33;;
70547;SDS011;58099;43.406;3.698;2022-12-10T16:32:57;7.07;;;2.88;;
70547;SDS011;58099;43.406;3.698;2022-12-10T16:35:23;10.25;;;4.00;;
70547;SDS011;58099;43.406;3.698;2022-12-10T16:37:49;9.93;;;3.67;;
70547;SDS011;58099;43.406;3.698;2022-12-10T16:40:20;8.00;;;2.90;;
70547;SDS011;58099;43.406;3.698;2022-12-10T16:42:47;10.50;;;3.80;;
70547;SDS011;58099;43.406;3.698;2022-12-10T16:45:18;10.23;;;3.25;;
70547;SDS011;58099;43.406;3.698;2022-12-10T16:47:45;9.35;;;3.30;;
70547;SDS011;58099;43.406;3.698;2022-12-10T16:50:13;9.23;;;3.40;;
70547;SDS011;58099;43.406;3.698;2022-12-10T16:52:39;11.38;;;3.58;;
70547;SDS011;58099;43.406;3.698;2022-12-10T16:55:06;10.50;;;3.60;;
70547;SDS011;58099;43.406;3.698;2022-12-10T16:57:36;9.82;;;3.70;;
70547;SDS011;58099;43.406;3.698;2022-12-10T17:00:05;9.32;;;3.67;;
70547;SDS011;58099;43.406;3.698;2022-12-10T17:02:31;8.80;;;3.40;;
70547;SDS011;58099;43.406;3.698;2022-12-10T17:04:57;8.32;;;3.20;;
70547;SDS011;58099;43.406;3.698;2022-12-10T17:07:22;8.17;;;2.77;;
70547;SDS011;58099;43.406;3.698;2022-12-10T17:09:48;10.07;;;3.50;;
70547;SDS011;58099;43.406;3.698;2022-12-10T17:12:14;8.13;;;2.60;;
70547;SDS011;58099;43.406;3.698;2022-12-10T17:14:40;9.32;;;3.17;;
70547;SDS011;58099;43.406;3.698;2022-12-10T17:17:11;9.45;;;3.40;;
70547;SDS011;58099;43.406;3.698;2022-12-10T17:19:39;9.70;;;3.45;;
70547;SDS011;58099;43.406;3.698;2022-12-10T17:22:05;9.47;;;3.37;;
70547;SDS011;58099;43.406;3.698;2022-12-10T17:24:32;10.73;;;3.78;;
70547;SDS011;58099;43.406;3.698;2022-12-10T17:27:00;9.30;;;3.63;;
70547;SDS011;58099;43.406;3.698;2022-12-10T17:29:32;8.98;;;3.38;;
70547;SDS011;58099;43.406;3.698;2022-12-10T17:32:02;8.02;;;3.20;;
70547;SDS011;58099;43.406;3.698;2022-12-10T17:34:28;9.50;;;3.70;;
70547;SDS011;58099;43.406;3.698;2022-12-10T17:36:54;9.13;;;3.40;;
70547;SDS011;58099;43.406;3.698;2022-12-10T17:39:21;8.75;;;3.10;;
70547;SDS011;58099;43.406;3.698;2022-12-10T17:41:49;9.43;;;3.80;;
70547;SDS011;58099;43.406;3.698;2022-12-10T17:44:16;8.98;;;2.97;;
70547;SDS011;58099;43.406;3.698;2022-12-10T17:46:42;9.23;;;3.40;;
70547;SDS011;58099;43.406;3.698;2022-12-10T17:49:09;10.10;;;3.57;;
70547;SDS011;58099;43.406;3.698;2022-12-10T17:51:37;9.15;;;3.35;;
70547;SDS011;58099;43.406;3.698;2022-12-10T17:54:03;8.15;;;2.97;;
70547;SDS011;58099;43.406;3.698;2022-12-10T17:56:29;8.90;;;3.07;;
70547;SDS011;58099;43.406;3.698;2022-12-10T17:58:56;8.13;;;3.35;;
70547;SDS011;58099;43.406;3.698;2022-12-10T18:01:22;7.88;;;3.20;;
70547;SDS011;58099;43.406;3.698;2022-12-10T18:03:48;8.63;;;3.13;;
70547;SDS011;58099;43.406;3.698;2022-12-10T18:06:17;9.35;;;3.97;;
70547;SDS011;58099;43.406;3.698;2022-12-10T18:08:47;8.27;;;3.42;;
70547;SDS011;58099;43.406;3.698;2022-12-10T18:11:15;9.40;;;3.83;;
70547;SDS011;58099;43.406;3.698;2022-12-10T18:13:44;9.88;;;4.10;;
70547;SDS011;58099;43.406;3.698;2022-12-10T18:16:20;9.88;;;3.25;;
70547;SDS011;58099;43.406;3.698;2022-12-10T18:18:52;9.13;;;3.70;;
70547;SDS011;58099;43.406;3.698;2022-12-10T18:21:19;10.53;;;3.40;;
70547;SDS011;58099;43.406;3.698;2022-12-10T18:23:45;9.40;;;3.35;;
70547;SDS011;58099;43.406;3.698;2022-12-10T18:26:11;9.70;;;3.58;;
70547;SDS011;58099;43.406;3.698;2022-12-10T18:28:43;9.03;;;3.40;;
70547;SDS011;58099;43.406;3.698;2022-12-10T18:31:13;7.63;;;3.13;;
70547;SDS011;58099;43.406;3.698;2022-12-10T18:33:42;8.13;;;3.50;;
70547;SDS011;58099;43.406;3.698;2022-12-10T18:36:14;9.25;;;3.35;;
70547;SDS011;58099;43.406;3.698;2022-12-10T18:38:42;9.60;;;3.97;;
70547;SDS011;58099;43.406;3.698;2022-12-10T18:41:10;8.60;;;3.23;;
70547;SDS011;58099;43.406;3.698;2022-12-10T18:43:36;9.02;;;3.67;;
70547;SDS011;58099;43.406;3.698;2022-12-10T18:46:02;8.90;;;3.70;;
70547;SDS011;58099;43.406;3.698;2022-12-10T18:48:28;9.50;;;3.58;;
70547;SDS011;58099;43.406;3.698;2022-12-10T18:50:53;8.57;;;3.38;;
70547;SDS011;58099;43.406;3.698;2022-12-10T18:53:21;8.55;;;3.17;;
70547;SDS011;58099;43.406;3.698;2022-12-10T18:55:47;9.77;;;3.80;;
70547;SDS011;58099;43.406;3.698;2022-12-10T18:58:12;7.80;;;3.20;;
70547;SDS011;58099;43.406;3.698;2022-12-10T19:00:38;8.73;;;3.42;;
70547;SDS011;58099;43.406;3.698;2022-12-10T19:03:04;8.67;;;3.23;;
70547;SDS011;58099;43.406;3.698;2022-12-10T19:05:31;9.07;;;3.40;;
70547;SDS011;58099;43.406;3.698;2022-12-10T19:07:58;7.60;;;3.47;;
70547;SDS011;58099;43.406;3.698;2022-12-10T19:10:25;9.05;;;3.30;;
70547;SDS011;58099;43.406;3.698;2022-12-10T19:12:51;9.45;;;3.53;;
70547;SDS011;58099;43.406;3.698;2022-12-10T19:15:17;8.98;;;3.13;;
70547;SDS011;58099;43.406;3.698;2022-12-10T19:17:44;9.90;;;3.72;;
70547;SDS011;58099;43.406;3.698;2022-12-10T19:20:22;6.82;;;2.70;;
70547;SDS011;58099;43.406;3.698;2022-12-10T19:22:48;8.65;;;3.20;;
70547;SDS011;58099;43.406;3.698;2022-12-10T19:25:15;8.07;;;2.70;;
70547;SDS011;58099;43.406;3.698;2022-12-10T19:27:42;8.82;;;3.08;;
70547;SDS011;58099;43.406;3.698;2022-12-10T19:30:12;8.45;;;2.70;;
70547;SDS011;58099;43.406;3.698;2022-12-10T19:32:43;8.68;;;3.13;;
70547;SDS011;58099;43.406;3.698;2022-12-10T19:35:10;6.70;;;2.60;;
70547;SDS011;58099;43.406;3.698;2022-12-10T19:37:37;7.50;;;3.08;;
70547;SDS011;58099;43.406;3.698;2022-12-10T19:40:04;8.02;;;2.80;;
70547;SDS011;58099;43.406;3.698;2022-12-10T19:42:31;7.25;;;2.78;;
70547;SDS011;58099;43.406;3.698;2022-12-10T19:44:57;7.20;;;3.13;;
70547;SDS011;58099;43.406;3.698;2022-12-10T19:47:24;8.50;;;2.78;;
70547;SDS011;58099;43.406;3.698;2022-12-10T19:49:49;8.88;;;3.17;;
70547;SDS011;58099;43.406;3.698;2022-12-10T19:52:15;10.10;;;3.37;;
70547;SDS011;58099;43.406;3.698;2022-12-10T19:54:41;8.83;;;3.27;;
70547;SDS011;58099;43.406;3.698;2022-12-10T19:57:08;8.10;;;2.97;;
70547;SDS011;58099;43.406;3.698;2022-12-10T19:59:36;8.02;;;3.20;;
70547;SDS011;58099;43.406;3.698;2022-12-10T20:02:03;7.38;;;2.88;;
70547;SDS011;58099;43.406;3.698;2022-12-10T20:04:28;8.97;;;3.30;;
70547;SDS011;58099;43.406;3.698;2022-12-10T20:06:54;7.82;;;3.20;;
70547;SDS011;58099;43.406;3.698;2022-12-10T20:09:21;9.13;;;3.23;;
70547;SDS011;58099;43.406;3.698;2022-12-10T20:11:48;9.88;;;3.63;;
70547;SDS011;58099;43.406;3.698;2022-12-10T20:14:15;8.43;;;3.35;;
70547;SDS011;58099;43.406;3.698;2022-12-10T20:16:41;8.85;;;3.33;;
70547;SDS011;58099;43.406;3.698;2022-12-10T20:19:14;7.90;;;3.03;;
70547;SDS011;58099;43.406;3.698;2022-12-10T20:21:41;7.40;;;2.72;;
70547;SDS011;58099;43.406;3.698;2022-12-10T20:24:07;7.97;;;3.10;;
70547;SDS011;58099;43.406;3.698;2022-12-10T20:26:43;7.40;;;2.93;;
70547;SDS011;58099;43.406;3.698;2022-12-10T20:29:20;10.27;;;3.60;;
70547;SDS011;58099;43.406;3.698;2022-12-10T20:31:48;8.30;;;3.20;;
70547;SDS011;58099;43.406;3.698;2022-12-10T20:34:15;9.23;;;3.60;;
70547;SDS011;58099;43.406;3.698;2022-12-10T20:36:42;8.35;;;3.15;;
70547;SDS011;58099;43.406;3.698;2022-12-10T20:39:12;8.23;;;3.17;;
70547;SDS011;58099;43.406;3.698;2022-12-10T20:41:42;8.65;;;3.55;;
70547;SDS011;58099;43.406;3.698;2022-12-10T20:44:09;8.68;;;3.38;;
70547;SDS011;58099;43.406;3.698;2022-12-10T20:46:34;8.57;;;3.00;;
70547;SDS011;58099;43.406;3.698;2022-12-10T20:49:02;7.95;;;2.50;;
70547;SDS011;58099;43.406;3.698;2022-12-10T20:51:28;9.65;;;3.53;;
70547;SDS011;58099;43.406;3.698;2022-12-10T20:53:54;9.80;;;3.55;;
70547;SDS011;58099;43.406;3.698;2022-12-10T20:56:20;10.23;;;3.50;;
70547;SDS011;58099;43.406;3.698;2022-12-10T20:58:47;8.55;;;3.30;;
70547;SDS011;58099;43.406;3.698;2022-12-10T21:01:14;9.23;;;3.50;;
70547;SDS011;58099;43.406;3.698;2022-12-10T21:03:40;10.03;;;3.60;;
70547;SDS011;58099;43.406;3.698;2022-12-10T21:06:06;8.88;;;3.45;;
70547;SDS011;58099;43.406;3.698;2022-12-10T21:08:35;9.63;;;3.50;;
70547;SDS011;58099;43.406;3.698;2022-12-10T21:11:00;7.93;;;3.27;;
70547;SDS011;58099;43.406;3.698;2022-12-10T21:13:27;8.20;;;3.05;;
70547;SDS011;58099;43.406;3.698;2022-12-10T21:15:54;6.88;;;2.65;;
70547;SDS011;58099;43.406;3.698;2022-12-10T21:18:22;8.15;;;3.20;;
70547;SDS011;58099;43.406;3.698;2022-12-10T21:20:49;8.43;;;3.38;;
70547;SDS011;58099;43.406;3.698;2022-12-10T21:23:16;9.05;;;2.80;;
70547;SDS011;58099;43.406;3.698;2022-12-10T21:25:44;7.87;;;2.80;;
70547;SDS011;58099;43.406;3.698;2022-12-10T21:28:09;8.65;;;2.60;;
70547;SDS011;58099;43.406;3.698;2022-12-10T21:30:36;7.95;;;2.65;;
70547;SDS011;58099;43.406;3.698;2022-12-10T21:33:03;6.88;;;2.60;;
70547;SDS011;58099;43.406;3.698;2022-12-10T21:35:29;8.70;;;3.33;;
70547;SDS011;58099;43.406;3.698;2022-12-10T21:37:58;6.47;;;1.88;;
70547;SDS011;58099;43.406;3.698;2022-12-10T21:40:24;7.82;;;2.53;;
70547;SDS011;58099;43.406;3.698;2022-12-10T21:42:50;7.10;;;2.60;;
70547;SDS011;58099;43.406;3.698;2022-12-10T21:45:34;6.57;;;2.25;;
70547;SDS011;58099;43.406;3.698;2022-12-10T21:48:00;7.17;;;2.30;;
70547;SDS011;58099;43.406;3.698;2022-12-10T21:50:26;7.60;;;2.50;;